Dyrsten — WAK5769 — position and weather

sailwx.info

Track history (hours):
 
Tides and Currents Weather Stations Pressure Air Temp Water Temp Dewpoint Dewpoint Depression Visibility Wind Speed Wind Dir Waves Ship Positions

Dyrsten

Owner: H & L AXELSSON INC, CAPE MAY, NJ. More information available from US FCC via Universal Licensing System and Coast Guard Vessel Documentation Center.

Last reported at 2017-Oct-17 16:36 UTC. Time now 2017-Oct-22 05:01 UTC.
Position N 42°30' W 070°34'.

Length 52 m.

Type: Fishing. MMSI: 367016390.

Date/timePositionNaut miles runAvg speedWind from/ knotsBaromVisibWave heightAir tempDewpointWater temp
2017-Oct-17 16:36N 42°30' W 070°34'1 9.0
2017-Oct-17 16:30N 42°30' W 070°35'5 9.1
2017-Oct-17 16:00N 42°33' W 070°39'3 6.9
2017-Oct-17 15:30N 42°37' W 070°39'0 0.3
2017-Oct-17 14:56N 42°37' W 070°39'0 0.0
2017-Oct-17 14:29N 42°37' W 070°39'0 0.0
2017-Oct-17 13:59N 42°37' W 070°39'0 0.0
2017-Oct-17 13:29N 42°37' W 070°39'0 0.0
2017-Oct-17 12:47N 42°37' W 070°39'0 0.0
2017-Oct-17 12:26N 42°37' W 070°39'0 0.0
2017-Oct-17 11:59N 42°37' W 070°39'0 0.0
2017-Oct-17 11:29N 42°37' W 070°39'0 0.0
2017-Oct-17 10:56N 42°37' W 070°39'0 0.0
2017-Oct-17 10:29N 42°37' W 070°39'0 0.0
2017-Oct-17 09:47N 42°37' W 070°39'0 0.0
2017-Oct-17 09:29N 42°37' W 070°39'0 0.0
2017-Oct-17 08:59N 42°37' W 070°39'0 0.0
2017-Oct-17 08:29N 42°37' W 070°39'0 0.0
2017-Oct-17 07:56N 42°37' W 070°39'0 0.0
2017-Oct-17 07:23N 42°37' W 070°39'0 0.0
2017-Oct-17 06:59N 42°37' W 070°39'0 0.0
2017-Oct-17 06:29N 42°37' W 070°39'0 0.0
2017-Oct-17 05:56N 42°37' W 070°39'0 0.0
2017-Oct-17 05:29N 42°37' W 070°39'0 0.0
2017-Oct-17 04:59N 42°37' W 070°39'0 0.0
2017-Oct-17 04:29N 42°37' W 070°39'0 0.0
2017-Oct-17 03:59N 42°37' W 070°39'0 0.0
2017-Oct-17 03:08N 42°37' W 070°39'0 0.0
2017-Oct-17 02:53N 42°37' W 070°39'0 0.0
2017-Oct-17 02:29N 42°37' W 070°39'0 0.0
2017-Oct-17 01:17N 42°37' W 070°39'0 0.0
2017-Oct-17 00:59N 42°37' W 070°39'0 0.0
2017-Oct-17 00:29N 42°37' W 070°39'0 0.0
2017-Oct-16 23:59N 42°37' W 070°39'0 0.0
2017-Oct-16 23:29N 42°37' W 070°39'0 0.0
2017-Oct-16 22:53N 42°37' W 070°39'0 0.0
2017-Oct-16 22:26N 42°37' W 070°39'0 0.0
2017-Oct-16 21:56N 42°37' W 070°39'0 0.0
2017-Oct-16 21:26N 42°37' W 070°39'0 0.0
2017-Oct-16 20:56N 42°37' W 070°39'0 0.0
2017-Oct-16 20:11N 42°37' W 070°39'0 0.0
2017-Oct-16 19:56N 42°37' W 070°39'0 0.0
2017-Oct-16 19:29N 42°37' W 070°39'0 0.0
2017-Oct-16 18:59N 42°37' W 070°39'0 0.0
2017-Oct-16 18:29N 42°37' W 070°39'0 0.0
2017-Oct-16 17:59N 42°37' W 070°39'0 0.0
2017-Oct-16 17:20N 42°37' W 070°39'0 0.0
2017-Oct-16 16:59N 42°37' W 070°39'0 0.0
2017-Oct-16 16:23N 42°37' W 070°39'0 0.0
2017-Oct-16 15:59N 42°37' W 070°39'0 0.0
2017-Oct-16 15:29N 42°37' W 070°39'0 0.0
2017-Oct-16 14:53N 42°37' W 070°39'0 0.0
2017-Oct-16 13:59N 42°37' W 070°39'0 0.0
2017-Oct-16 13:23N 42°37' W 070°39'0 0.0
2017-Oct-16 12:59N 42°37' W 070°39'0 0.0
2017-Oct-16 12:29N 42°37' W 070°39'0 0.0
2017-Oct-16 11:53N 42°37' W 070°39'0 0.0
2017-Oct-16 11:29N 42°37' W 070°39'0 0.0
2017-Oct-16 10:59N 42°37' W 070°39'0 0.0
2017-Oct-16 10:29N 42°37' W 070°39'0 0.0
2017-Oct-16 09:59N 42°37' W 070°39'0 0.0
2017-Oct-16 09:29N 42°37' W 070°39'0 0.0
2017-Oct-16 08:59N 42°37' W 070°39'0 0.0
2017-Oct-16 08:29N 42°37' W 070°39'0 0.0
2017-Oct-16 07:59N 42°37' W 070°39'0 0.0
2017-Oct-16 07:29N 42°37' W 070°39'0 0.0
2017-Oct-16 06:59N 42°37' W 070°39'0 0.0
2017-Oct-16 06:29N 42°37' W 070°39'0 0.0
2017-Oct-16 05:59N 42°37' W 070°39'0 0.0
2017-Oct-16 05:29N 42°37' W 070°39'0 0.0
2017-Oct-16 04:59N 42°37' W 070°39'0 0.0
2017-Oct-16 04:29N 42°37' W 070°39'0 0.0
2017-Oct-16 03:59N 42°37' W 070°39'0 0.0
2017-Oct-16 03:29N 42°37' W 070°39'0 0.0
2017-Oct-16 02:59N 42°37' W 070°39'0 0.0
2017-Oct-16 02:29N 42°37' W 070°39'0 0.0
2017-Oct-16 01:59N 42°37' W 070°39'3 6.1
2017-Oct-16 01:30N 42°34' W 070°41'4 8.8
2017-Oct-16 01:00N 42°31' W 070°36'4 8.9
2017-Oct-16 00:30N 42°29' W 070°31'4 8.9
2017-Oct-16 00:00N 42°26' W 070°27'4 8.9
2017-Oct-15 23:30N 42°22' W 070°23'  
2017-Oct-13 03:25N 42°37' W 070°39'0 0.1
2017-Oct-13 02:59N 42°37' W 070°39'0 0.0
2017-Oct-13 02:29N 42°37' W 070°39'0 0.0
2017-Oct-13 01:59N 42°37' W 070°39'0 0.0
2017-Oct-13 01:20N 42°37' W 070°39'0 0.0
2017-Oct-13 00:59N 42°37' W 070°39'0 0.0
2017-Oct-13 00:29N 42°37' W 070°39'0 0.0
2017-Oct-12 23:59N 42°37' W 070°39'0 0.0
2017-Oct-12 23:29N 42°37' W 070°39'0 0.0
2017-Oct-12 22:56N 42°37' W 070°39'0 0.0
2017-Oct-12 22:29N 42°37' W 070°39'0 0.0
2017-Oct-12 21:59N 42°37' W 070°39'0 0.0
2017-Oct-12 21:29N 42°37' W 070°39'0 0.0
2017-Oct-12 20:59N 42°37' W 070°39'0 0.0
2017-Oct-12 20:26N 42°37' W 070°39'0 0.0
2017-Oct-12 19:59N 42°37' W 070°39'0 0.0
2017-Oct-12 19:29N 42°37' W 070°39'0 0.0
2017-Oct-12 18:59N 42°37' W 070°39'0 0.0
2017-Oct-12 18:17N 42°37' W 070°39'0 0.0
2017-Oct-12 17:56N 42°37' W 070°39'0 0.0
2017-Oct-12 17:29N 42°37' W 070°39'0 0.0
2017-Oct-12 16:59N 42°37' W 070°39'0 0.0
2017-Oct-12 16:29N 42°37' W 070°39'0 0.0
2017-Oct-12 15:59N 42°37' W 070°39'0 0.0
2017-Oct-12 15:29N 42°37' W 070°39'0 0.0
2017-Oct-12 14:56N 42°37' W 070°39'0 0.0
2017-Oct-12 14:29N 42°37' W 070°39'0 0.0
2017-Oct-12 13:59N 42°37' W 070°39'0 0.0
2017-Oct-12 13:23N 42°37' W 070°39'0 0.0
2017-Oct-12 12:56N 42°37' W 070°39'0 0.0
2017-Oct-12 12:29N 42°37' W 070°39'0 0.0
2017-Oct-12 11:47N 42°37' W 070°39'0 0.0
2017-Oct-12 11:26N 42°37' W 070°39'0 0.0
2017-Oct-12 10:59N 42°37' W 070°39'0 0.0
2017-Oct-12 10:29N 42°37' W 070°39'0 0.0
2017-Oct-12 09:59N 42°37' W 070°39'0 0.0
2017-Oct-12 09:29N 42°37' W 070°39'1 2.3
2017-Oct-12 08:59N 42°36' W 070°40'3 6.4
2017-Oct-12 08:30N 42°34' W 070°38'4 8.9
2017-Oct-12 08:00N 42°33' W 070°32'5 9.4
2017-Oct-12 07:30N 42°32' W 070°26'5 9.3
2017-Oct-12 07:00N 42°31' W 070°19'5 9.1
2017-Oct-12 06:30N 42°30' W 070°13'  
2017-Oct-08 01:29N 42°26' W 070°07'4 7.5
2017-Oct-08 01:00N 42°27' W 070°12'4 7.7
2017-Oct-08 00:30N 42°28' W 070°17'4 8.0
2017-Oct-08 00:00N 42°29' W 070°22'4 8.1
2017-Oct-07 23:30N 42°31' W 070°27'4 8.0
2017-Oct-07 23:00N 42°32' W 070°32'4 8.3
2017-Oct-07 22:30N 42°33' W 070°38'3 6.6
2017-Oct-07 22:00N 42°36' W 070°40'1 2.8
2017-Oct-07 21:29N 42°37' W 070°39'0 0.0
2017-Oct-07 20:59N 42°37' W 070°39'0 0.0
2017-Oct-07 20:23N 42°37' W 070°39'0 0.0
2017-Oct-07 19:59N 42°37' W 070°39'0 0.0
2017-Oct-07 19:29N 42°37' W 070°39'0 0.0
2017-Oct-07 18:59N 42°37' W 070°39'0 0.0
2017-Oct-07 18:29N 42°37' W 070°39'0 0.0
2017-Oct-07 17:59N 42°37' W 070°39'0 0.0
2017-Oct-07 17:29N 42°37' W 070°39'0 0.0
2017-Oct-07 16:59N 42°37' W 070°39'  
Track history (hours):
 
Tides and Currents Weather Stations Pressure Air Temp Water Temp Dewpoint Dewpoint Depression Visibility Wind Speed Wind Dir Waves Ship Positions

Dyrsten

Owner: H & L AXELSSON INC, CAPE MAY, NJ. More information available from US FCC via Universal Licensing System and Coast Guard Vessel Documentation Center.

Last reported at 2017-Oct-17 16:36 UTC. Time now 2017-Oct-22 05:01 UTC.
Position N 42°30' W 070°34'.

Length 52 m.

Type: Fishing. MMSI: 367016390.

Date/timePositionNaut miles runAvg speedWind from/ knotsBaromVisibWave heightAir tempDewpointWater temp
2017-Oct-17 16:36N 42°30' W 070°34'1 9.0
2017-Oct-17 16:30N 42°30' W 070°35'5 9.1
2017-Oct-17 16:00N 42°33' W 070°39'3 6.9
2017-Oct-17 15:30N 42°37' W 070°39'0 0.3
2017-Oct-17 14:56N 42°37' W 070°39'0 0.0
2017-Oct-17 14:29N 42°37' W 070°39'0 0.0
2017-Oct-17 13:59N 42°37' W 070°39'0 0.0
2017-Oct-17 13:29N 42°37' W 070°39'0 0.0
2017-Oct-17 12:47N 42°37' W 070°39'0 0.0
2017-Oct-17 12:26N 42°37' W 070°39'0 0.0
2017-Oct-17 11:59N 42°37' W 070°39'0 0.0
2017-Oct-17 11:29N 42°37' W 070°39'0 0.0
2017-Oct-17 10:56N 42°37' W 070°39'0 0.0
2017-Oct-17 10:29N 42°37' W 070°39'0 0.0
2017-Oct-17 09:47N 42°37' W 070°39'0 0.0
2017-Oct-17 09:29N 42°37' W 070°39'0 0.0
2017-Oct-17 08:59N 42°37' W 070°39'0 0.0
2017-Oct-17 08:29N 42°37' W 070°39'0 0.0
2017-Oct-17 07:56N 42°37' W 070°39'0 0.0
2017-Oct-17 07:23N 42°37' W 070°39'0 0.0
2017-Oct-17 06:59N 42°37' W 070°39'0 0.0
2017-Oct-17 06:29N 42°37' W 070°39'0 0.0
2017-Oct-17 05:56N 42°37' W 070°39'0 0.0
2017-Oct-17 05:29N 42°37' W 070°39'0 0.0
2017-Oct-17 04:59N 42°37' W 070°39'0 0.0
2017-Oct-17 04:29N 42°37' W 070°39'0 0.0
2017-Oct-17 03:59N 42°37' W 070°39'0 0.0
2017-Oct-17 03:08N 42°37' W 070°39'0 0.0
2017-Oct-17 02:53N 42°37' W 070°39'0 0.0
2017-Oct-17 02:29N 42°37' W 070°39'0 0.0
2017-Oct-17 01:17N 42°37' W 070°39'0 0.0
2017-Oct-17 00:59N 42°37' W 070°39'0 0.0
2017-Oct-17 00:29N 42°37' W 070°39'0 0.0
2017-Oct-16 23:59N 42°37' W 070°39'0 0.0
2017-Oct-16 23:29N 42°37' W 070°39'0 0.0
2017-Oct-16 22:53N 42°37' W 070°39'0 0.0
2017-Oct-16 22:26N 42°37' W 070°39'0 0.0
2017-Oct-16 21:56N 42°37' W 070°39'0 0.0
2017-Oct-16 21:26N 42°37' W 070°39'0 0.0
2017-Oct-16 20:56N 42°37' W 070°39'0 0.0
2017-Oct-16 20:11N 42°37' W 070°39'0 0.0
2017-Oct-16 19:56N 42°37' W 070°39'0 0.0
2017-Oct-16 19:29N 42°37' W 070°39'0 0.0
2017-Oct-16 18:59N 42°37' W 070°39'0 0.0
2017-Oct-16 18:29N 42°37' W 070°39'0 0.0
2017-Oct-16 17:59N 42°37' W 070°39'0 0.0
2017-Oct-16 17:20N 42°37' W 070°39'0 0.0
2017-Oct-16 16:59N 42°37' W 070°39'0 0.0
2017-Oct-16 16:23N 42°37' W 070°39'0 0.0
2017-Oct-16 15:59N 42°37' W 070°39'0 0.0
2017-Oct-16 15:29N 42°37' W 070°39'0 0.0
2017-Oct-16 14:53N 42°37' W 070°39'0 0.0
2017-Oct-16 13:59N 42°37' W 070°39'0 0.0
2017-Oct-16 13:23N 42°37' W 070°39'0 0.0
2017-Oct-16 12:59N 42°37' W 070°39'0 0.0
2017-Oct-16 12:29N 42°37' W 070°39'0 0.0
2017-Oct-16 11:53N 42°37' W 070°39'0 0.0
2017-Oct-16 11:29N 42°37' W 070°39'0 0.0
2017-Oct-16 10:59N 42°37' W 070°39'0 0.0
2017-Oct-16 10:29N 42°37' W 070°39'0 0.0
2017-Oct-16 09:59N 42°37' W 070°39'0 0.0
2017-Oct-16 09:29N 42°37' W 070°39'0 0.0
2017-Oct-16 08:59N 42°37' W 070°39'0 0.0
2017-Oct-16 08:29N 42°37' W 070°39'0 0.0
2017-Oct-16 07:59N 42°37' W 070°39'0 0.0
2017-Oct-16 07:29N 42°37' W 070°39'0 0.0
2017-Oct-16 06:59N 42°37' W 070°39'0 0.0
2017-Oct-16 06:29N 42°37' W 070°39'0 0.0
2017-Oct-16 05:59N 42°37' W 070°39'0 0.0
2017-Oct-16 05:29N 42°37' W 070°39'0 0.0
2017-Oct-16 04:59N 42°37' W 070°39'0 0.0
2017-Oct-16 04:29N 42°37' W 070°39'0 0.0
2017-Oct-16 03:59N 42°37' W 070°39'0 0.0
2017-Oct-16 03:29N 42°37' W 070°39'0 0.0
2017-Oct-16 02:59N 42°37' W 070°39'0 0.0
2017-Oct-16 02:29N 42°37' W 070°39'0 0.0
2017-Oct-16 01:59N 42°37' W 070°39'3 6.1
2017-Oct-16 01:30N 42°34' W 070°41'4 8.8
2017-Oct-16 01:00N 42°31' W 070°36'4 8.9
2017-Oct-16 00:30N 42°29' W 070°31'4 8.9
2017-Oct-16 00:00N 42°26' W 070°27'4 8.9
2017-Oct-15 23:30N 42°22' W 070°23'  
2017-Oct-13 03:25N 42°37' W 070°39'0 0.1
2017-Oct-13 02:59N 42°37' W 070°39'0 0.0
2017-Oct-13 02:29N 42°37' W 070°39'0 0.0
2017-Oct-13 01:59N 42°37' W 070°39'0 0.0
2017-Oct-13 01:20N 42°37' W 070°39'0 0.0
2017-Oct-13 00:59N 42°37' W 070°39'0 0.0
2017-Oct-13 00:29N 42°37' W 070°39'0 0.0
2017-Oct-12 23:59N 42°37' W 070°39'0 0.0
2017-Oct-12 23:29N 42°37' W 070°39'0 0.0
2017-Oct-12 22:56N 42°37' W 070°39'0 0.0
2017-Oct-12 22:29N 42°37' W 070°39'0 0.0
2017-Oct-12 21:59N 42°37' W 070°39'0 0.0
2017-Oct-12 21:29N 42°37' W 070°39'0 0.0
2017-Oct-12 20:59N 42°37' W 070°39'0 0.0
2017-Oct-12 20:26N 42°37' W 070°39'0 0.0
2017-Oct-12 19:59N 42°37' W 070°39'0 0.0
2017-Oct-12 19:29N 42°37' W 070°39'0 0.0
2017-Oct-12 18:59N 42°37' W 070°39'0 0.0
2017-Oct-12 18:17N 42°37' W 070°39'0 0.0
2017-Oct-12 17:56N 42°37' W 070°39'0 0.0
2017-Oct-12 17:29N 42°37' W 070°39'0 0.0
2017-Oct-12 16:59N 42°37' W 070°39'0 0.0
2017-Oct-12 16:29N 42°37' W 070°39'0 0.0
2017-Oct-12 15:59N 42°37' W 070°39'0 0.0
2017-Oct-12 15:29N 42°37' W 070°39'0 0.0
2017-Oct-12 14:56N 42°37' W 070°39'0 0.0
2017-Oct-12 14:29N 42°37' W 070°39'0 0.0
2017-Oct-12 13:59N 42°37' W 070°39'0 0.0
2017-Oct-12 13:23N 42°37' W 070°39'0 0.0
2017-Oct-12 12:56N 42°37' W 070°39'0 0.0
2017-Oct-12 12:29N 42°37' W 070°39'0 0.0
2017-Oct-12 11:47N 42°37' W 070°39'0 0.0
2017-Oct-12 11:26N 42°37' W 070°39'0 0.0
2017-Oct-12 10:59N 42°37' W 070°39'0 0.0
2017-Oct-12 10:29N 42°37' W 070°39'0 0.0
2017-Oct-12 09:59N 42°37' W 070°39'0 0.0
2017-Oct-12 09:29N 42°37' W 070°39'1 2.3
2017-Oct-12 08:59N 42°36' W 070°40'3 6.4
2017-Oct-12 08:30N 42°34' W 070°38'4 8.9
2017-Oct-12 08:00N 42°33' W 070°32'5 9.4
2017-Oct-12 07:30N 42°32' W 070°26'5 9.3
2017-Oct-12 07:00N 42°31' W 070°19'5 9.1
2017-Oct-12 06:30N 42°30' W 070°13'  
2017-Oct-08 01:29N 42°26' W 070°07'4 7.5
2017-Oct-08 01:00N 42°27' W 070°12'4 7.7
2017-Oct-08 00:30N 42°28' W 070°17'4 8.0
2017-Oct-08 00:00N 42°29' W 070°22'4 8.1
2017-Oct-07 23:30N 42°31' W 070°27'4 8.0
2017-Oct-07 23:00N 42°32' W 070°32'4 8.3
2017-Oct-07 22:30N 42°33' W 070°38'3 6.6
2017-Oct-07 22:00N 42°36' W 070°40'1 2.8
2017-Oct-07 21:29N 42°37' W 070°39'0 0.0
2017-Oct-07 20:59N 42°37' W 070°39'0 0.0
2017-Oct-07 20:23N 42°37' W 070°39'0 0.0
2017-Oct-07 19:59N 42°37' W 070°39'0 0.0
2017-Oct-07 19:29N 42°37' W 070°39'0 0.0
2017-Oct-07 18:59N 42°37' W 070°39'0 0.0
2017-Oct-07 18:29N 42°37' W 070°39'0 0.0
2017-Oct-07 17:59N 42°37' W 070°39'0 0.0
2017-Oct-07 17:29N 42°37' W 070°39'0 0.0
2017-Oct-07 16:59N 42°37' W 070°39'  

Dump ship's entire track history